KCMY/CMY METAR and TAF weather

Enter ICAO airport designator
Station Type Date Time Source
KCMY METAR 2021/04/14 20:55 UTC NOAA

KCMY 142055Z AUTO 27007KT 10SM 04/00 A3011 RMK AO2 T00401003


Station Type Date Time Source
KCMY Decoded METAR 2021/04/14 20:55 UTC NOAA

Sparta, Sparta / Fort McCoy Airport, WI, United States (KCMY) 43-57-30N 090-44-16W
Apr 14, 2021 - 04:55 PM EDT / 2021.04.14 2055 UTC
Wind: from the W (270 degrees) at 8 MPH (7 KT):0
Visibility: 10 mile(s):0
Temperature: 39.2 F (4.0 C)
Dew Point: 31.5 F (-0.3 C)
Relative Humidity: 73%
Pressure (altimeter): 30.11 in. Hg (1019 hPa)
ob: KCMY 142055Z AUTO 27007KT 10SM 04/00 A3011 RMK AO2 T00401003
cycle: 21

Station Type Date Time Source
KCMY TAF UTC NOAA

Error!

Example: see airport list